EGMC/SEN METAR and TAF weather

Enter ICAO airport designator
Station Type Date Time Source
EGMC METAR 2019/10/18 07:20 UTC NOAA

EGMC 180720Z 23012KT 9999 SCT018 10/09 Q0998


Station Type Date Time Source
EGMC Decoded METAR 2019/10/18 07:20 UTC NOAA

Southend-On-Sea , United Kingdom (EGMC) 51-34N 000-42E
Oct 18, 2019 - 03:20 AM EDT / 2019.10.18 0720 UTC
Wind: from the SW (230 degrees) at 14 MPH (12 KT):0
Visibility: greater than 7 mile(s):0
Sky conditions: partly cloudy
Temperature: 50 F (10 C)
Dew Point: 48 F (9 C)
Relative Humidity: 93%
Pressure (altimeter): 29.47 in. Hg (0998 hPa)
ob: EGMC 180720Z 23012KT 9999 SCT018 10/09 Q0998
cycle: 7

Station Type Date Time Source
EGMC TAF 2016/04/18 18:00 UTC NOAA

TAF EGMC 181658Z 1818/1903 28008KT 9999 BKN045

Example: see airport list